sensor_id;sensor_type;location;lat;lon;timestamp;pressure;altitude;pressure_sealevel;temperature;humidity
54628;BME280;40525;55.926;21.066;2023-06-10T00:01:49;102272.39;;;14.09;41.81
54628;BME280;40525;55.926;21.066;2023-06-10T00:04:43;102272.87;;;14.05;42.09
54628;BME280;40525;55.926;21.066;2023-06-10T00:07:36;102274.55;;;14.02;42.21
54628;BME280;40525;55.926;21.066;2023-06-10T00:10:36;102275.19;;;14.00;42.18
54628;BME280;40525;55.926;21.066;2023-06-10T00:13:10;102270.41;;;13.94;42.38
54628;BME280;40525;55.926;21.066;2023-06-10T00:15:57;102274.25;;;13.91;42.31
54628;BME280;40525;55.926;21.066;2023-06-10T00:18:31;102278.77;;;13.88;42.45
54628;BME280;40525;55.926;21.066;2023-06-10T00:21:18;102279.16;;;13.87;42.54
54628;BME280;40525;55.926;21.066;2023-06-10T00:23:59;102283.35;;;13.83;42.61
54628;BME280;40525;55.926;21.066;2023-06-10T00:26:39;102287.20;;;13.79;42.70
54628;BME280;40525;55.926;21.066;2023-06-10T00:29:20;102292.23;;;13.77;42.74
54628;BME280;40525;55.926;21.066;2023-06-10T00:32:00;102288.80;;;13.74;42.85
54628;BME280;40525;55.926;21.066;2023-06-10T00:34:40;102289.08;;;13.71;42.99
54628;BME280;40525;55.926;21.066;2023-06-10T00:37:20;102296.76;;;13.68;43.09
54628;BME280;40525;55.926;21.066;2023-06-10T00:40:02;102300.00;;;13.66;43.06
54628;BME280;40525;55.926;21.066;2023-06-10T00:42:42;102299.05;;;13.63;43.17
54628;BME280;40525;55.926;21.066;2023-06-10T00:45:22;102300.59;;;13.59;43.38
54628;BME280;40525;55.926;21.066;2023-06-10T00:48:04;102304.83;;;13.54;43.38
54628;BME280;40525;55.926;21.066;2023-06-10T00:50:48;102306.35;;;13.50;43.46
54628;BME280;40525;55.926;21.066;2023-06-10T00:53:28;102307.54;;;13.46;43.50
54628;BME280;40525;55.926;21.066;2023-06-10T00:56:09;102308.82;;;13.45;43.44
54628;BME280;40525;55.926;21.066;2023-06-10T00:58:50;102309.52;;;13.40;43.66
54628;BME280;40525;55.926;21.066;2023-06-10T01:01:31;102309.61;;;13.37;43.81
54628;BME280;40525;55.926;21.066;2023-06-10T01:04:13;102312.02;;;13.34;43.82
54628;BME280;40525;55.926;21.066;2023-06-10T01:10:04;102320.32;;;13.26;44.05
54628;BME280;40525;55.926;21.066;2023-06-10T01:15:40;102324.30;;;13.18;44.32
54628;BME280;40525;55.926;21.066;2023-06-10T01:18:22;102319.26;;;13.15;44.34
54628;BME280;40525;55.926;21.066;2023-06-10T01:21:03;102323.39;;;13.13;44.45
54628;BME280;40525;55.926;21.066;2023-06-10T01:23:44;102324.89;;;13.10;44.60
54628;BME280;40525;55.926;21.066;2023-06-10T01:26:33;102327.10;;;13.07;44.60
54628;BME280;40525;55.926;21.066;2023-06-10T01:29:19;102332.70;;;13.03;44.62
54628;BME280;40525;55.926;21.066;2023-06-10T01:32:12;102337.03;;;13.00;44.72
54628;BME280;40525;55.926;21.066;2023-06-10T01:34:49;102337.24;;;12.98;44.82
54628;BME280;40525;55.926;21.066;2023-06-10T01:37:38;102341.71;;;12.97;44.78
54628;BME280;40525;55.926;21.066;2023-06-10T01:40:14;102342.88;;;12.93;44.90
54628;BME280;40525;55.926;21.066;2023-06-10T01:43:01;102347.05;;;12.89;45.01
54628;BME280;40525;55.926;21.066;2023-06-10T01:45:35;102350.14;;;12.86;45.03
54628;BME280;40525;55.926;21.066;2023-06-10T01:48:22;102351.06;;;12.84;45.22
54628;BME280;40525;55.926;21.066;2023-06-10T01:50:56;102350.59;;;12.82;45.15
54628;BME280;40525;55.926;21.066;2023-06-10T01:53:42;102351.36;;;12.80;45.09
54628;BME280;40525;55.926;21.066;2023-06-10T01:56:16;102354.78;;;12.78;45.19
54628;BME280;40525;55.926;21.066;2023-06-10T01:59:02;102359.29;;;12.75;45.17
54628;BME280;40525;55.926;21.066;2023-06-10T02:01:36;102364.44;;;12.73;45.17
54628;BME280;40525;55.926;21.066;2023-06-10T02:04:23;102365.75;;;12.71;45.20
54628;BME280;40525;55.926;21.066;2023-06-10T02:06:58;102372.91;;;12.67;45.27
54628;BME280;40525;55.926;21.066;2023-06-10T02:09:46;102379.50;;;12.65;45.35
54628;BME280;40525;55.926;21.066;2023-06-10T02:12:20;102382.92;;;12.62;45.39
54628;BME280;40525;55.926;21.066;2023-06-10T02:15:07;102384.05;;;12.60;45.30
54628;BME280;40525;55.926;21.066;2023-06-10T02:17:41;102389.89;;;12.60;45.31
54628;BME280;40525;55.926;21.066;2023-06-10T02:20:29;102391.67;;;12.59;45.39
54628;BME280;40525;55.926;21.066;2023-06-10T02:23:03;102393.61;;;12.59;45.20
54628;BME280;40525;55.926;21.066;2023-06-10T02:25:49;102395.05;;;12.58;45.30
54628;BME280;40525;55.926;21.066;2023-06-10T02:28:24;102398.41;;;12.57;45.25
54628;BME280;40525;55.926;21.066;2023-06-10T02:31:11;102404.11;;;12.55;45.41
54628;BME280;40525;55.926;21.066;2023-06-10T02:33:45;102409.47;;;12.53;45.39
54628;BME280;40525;55.926;21.066;2023-06-10T02:36:32;102409.61;;;12.54;45.42
54628;BME280;40525;55.926;21.066;2023-06-10T02:39:07;102411.77;;;12.53;45.46
54628;BME280;40525;55.926;21.066;2023-06-10T02:41:57;102413.76;;;12.51;45.56
54628;BME280;40525;55.926;21.066;2023-06-10T02:44:31;102416.39;;;12.52;45.52
54628;BME280;40525;55.926;21.066;2023-06-10T02:47:20;102415.52;;;12.51;45.57
54628;BME280;40525;55.926;21.066;2023-06-10T02:49:54;102418.51;;;12.51;45.66
54628;BME280;40525;55.926;21.066;2023-06-10T02:52:45;102424.08;;;12.54;45.65
54628;BME280;40525;55.926;21.066;2023-06-10T02:55:21;102428.62;;;12.56;45.62
54628;BME280;40525;55.926;21.066;2023-06-10T02:58:11;102428.73;;;12.58;45.58
54628;BME280;40525;55.926;21.066;2023-06-10T03:00:45;102432.77;;;12.59;45.56
54628;BME280;40525;55.926;21.066;2023-06-10T03:03:33;102435.89;;;12.61;45.62
54628;BME280;40525;55.926;21.066;2023-06-10T03:06:29;102440.03;;;12.65;45.55
54628;BME280;40525;55.926;21.066;2023-06-10T03:09:27;102441.83;;;12.70;45.61
54628;BME280;40525;55.926;21.066;2023-06-10T03:12:01;102441.71;;;12.74;45.55
54628;BME280;40525;55.926;21.066;2023-06-10T03:14:51;102446.04;;;12.77;45.59
54628;BME280;40525;55.926;21.066;2023-06-10T03:17:24;102449.33;;;12.79;45.67
54628;BME280;40525;55.926;21.066;2023-06-10T03:20:12;102455.23;;;12.83;45.63
54628;BME280;40525;55.926;21.066;2023-06-10T03:22:46;102457.08;;;12.87;45.64
54628;BME280;40525;55.926;21.066;2023-06-10T03:25:34;102455.92;;;12.91;45.69
54628;BME280;40525;55.926;21.066;2023-06-10T03:28:09;102463.42;;;12.94;45.62
54628;BME280;40525;55.926;21.066;2023-06-10T03:30:57;102466.69;;;12.97;45.57
54628;BME280;40525;55.926;21.066;2023-06-10T03:33:31;102464.15;;;12.99;45.59
54628;BME280;40525;55.926;21.066;2023-06-10T03:36:19;102464.08;;;13.02;45.66
54628;BME280;40525;55.926;21.066;2023-06-10T03:38:53;102463.65;;;13.05;45.76
54628;BME280;40525;55.926;21.066;2023-06-10T03:41:40;102463.59;;;13.07;45.75
54628;BME280;40525;55.926;21.066;2023-06-10T03:44:14;102462.12;;;13.09;45.81
54628;BME280;40525;55.926;21.066;2023-06-10T03:47:01;102464.90;;;13.11;45.88
54628;BME280;40525;55.926;21.066;2023-06-10T03:49:36;102467.43;;;13.15;45.85
54628;BME280;40525;55.926;21.066;2023-06-10T03:52:23;102467.57;;;13.17;46.06
54628;BME280;40525;55.926;21.066;2023-06-10T03:54:57;102466.69;;;13.16;45.96
54628;BME280;40525;55.926;21.066;2023-06-10T03:57:49;102469.42;;;13.19;45.89
54628;BME280;40525;55.926;21.066;2023-06-10T04:00:22;102473.02;;;13.23;46.07
54628;BME280;40525;55.926;21.066;2023-06-10T04:03:10;102477.51;;;13.27;46.11
54628;BME280;40525;55.926;21.066;2023-06-10T04:06:05;102481.01;;;13.28;46.10
54628;BME280;40525;55.926;21.066;2023-06-10T04:08:39;102479.69;;;13.32;46.19
54628;BME280;40525;55.926;21.066;2023-06-10T04:11:26;102482.55;;;13.37;46.20
54628;BME280;40525;55.926;21.066;2023-06-10T04:14:00;102484.89;;;13.42;46.16
54628;BME280;40525;55.926;21.066;2023-06-10T04:16:48;102482.66;;;13.45;46.17
54628;BME280;40525;55.926;21.066;2023-06-10T04:19:22;102482.94;;;13.48;46.31
54628;BME280;40525;55.926;21.066;2023-06-10T04:22:12;102482.84;;;13.51;46.11
54628;BME280;40525;55.926;21.066;2023-06-10T04:24:45;102487.48;;;13.56;46.20
54628;BME280;40525;55.926;21.066;2023-06-10T04:27:32;102491.26;;;13.59;46.35
54628;BME280;40525;55.926;21.066;2023-06-10T04:30:06;102492.69;;;13.65;46.12
54628;BME280;40525;55.926;21.066;2023-06-10T04:32:55;102492.54;;;13.70;46.22
54628;BME280;40525;55.926;21.066;2023-06-10T04:35:28;102493.59;;;13.76;46.32
54628;BME280;40525;55.926;21.066;2023-06-10T04:38:17;102491.17;;;13.80;46.39
54628;BME280;40525;55.926;21.066;2023-06-10T04:40:51;102491.09;;;13.83;46.35
54628;BME280;40525;55.926;21.066;2023-06-10T04:43:39;102496.27;;;13.87;46.28
54628;BME280;40525;55.926;21.066;2023-06-10T04:46:12;102498.02;;;13.93;46.25
54628;BME280;40525;55.926;21.066;2023-06-10T04:48:59;102503.12;;;13.99;46.30
54628;BME280;40525;55.926;21.066;2023-06-10T04:51:33;102505.33;;;14.03;46.31
54628;BME280;40525;55.926;21.066;2023-06-10T04:54:21;102507.84;;;14.08;46.33
54628;BME280;40525;55.926;21.066;2023-06-10T04:56:54;102505.52;;;14.14;46.25
54628;BME280;40525;55.926;21.066;2023-06-10T04:59:41;102508.89;;;14.19;46.15
54628;BME280;40525;55.926;21.066;2023-06-10T05:02:14;102513.52;;;14.23;46.19
54628;BME280;40525;55.926;21.066;2023-06-10T05:05:01;102516.27;;;14.31;46.18
54628;BME280;40525;55.926;21.066;2023-06-10T05:07:34;102514.74;;;14.40;46.11
54628;BME280;40525;55.926;21.066;2023-06-10T05:10:21;102513.20;;;14.50;46.09
54628;BME280;40525;55.926;21.066;2023-06-10T05:12:54;102513.30;;;14.58;45.98
54628;BME280;40525;55.926;21.066;2023-06-10T05:15:40;102510.26;;;14.64;45.77
54628;BME280;40525;55.926;21.066;2023-06-10T05:18:18;102508.80;;;14.71;45.76
54628;BME280;40525;55.926;21.066;2023-06-10T05:21:05;102509.64;;;14.77;45.69
54628;BME280;40525;55.926;21.066;2023-06-10T05:23:39;102507.48;;;14.83;45.72
54628;BME280;40525;55.926;21.066;2023-06-10T05:26:26;102509.19;;;14.90;45.61
54628;BME280;40525;55.926;21.066;2023-06-10T05:28:59;102513.66;;;14.99;45.54
54628;BME280;40525;55.926;21.066;2023-06-10T05:31:50;102518.38;;;15.06;45.46
54628;BME280;40525;55.926;21.066;2023-06-10T05:34:24;102517.48;;;15.12;45.28
54628;BME280;40525;55.926;21.066;2023-06-10T05:37:12;102513.35;;;15.18;45.33
54628;BME280;40525;55.926;21.066;2023-06-10T05:39:46;102508.44;;;15.26;45.20
54628;BME280;40525;55.926;21.066;2023-06-10T05:42:32;102506.91;;;15.34;45.12
54628;BME280;40525;55.926;21.066;2023-06-10T05:45:06;102510.37;;;15.41;44.97
54628;BME280;40525;55.926;21.066;2023-06-10T05:47:53;102506.18;;;15.49;44.98
54628;BME280;40525;55.926;21.066;2023-06-10T05:50:28;102509.05;;;15.57;44.89
54628;BME280;40525;55.926;21.066;2023-06-10T05:53:17;102503.70;;;15.68;44.71
54628;BME280;40525;55.926;21.066;2023-06-10T05:55:51;102500.68;;;15.78;44.60
54628;BME280;40525;55.926;21.066;2023-06-10T05:58:37;102495.20;;;15.87;44.59
54628;BME280;40525;55.926;21.066;2023-06-10T06:01:11;102494.43;;;15.92;44.58
54628;BME280;40525;55.926;21.066;2023-06-10T06:03:57;102496.41;;;16.01;44.37
54628;BME280;40525;55.926;21.066;2023-06-10T06:06:38;102493.69;;;16.07;44.12
54628;BME280;40525;55.926;21.066;2023-06-10T06:09:18;102489.55;;;16.13;43.91
54628;BME280;40525;55.926;21.066;2023-06-10T06:11:59;102493.98;;;16.22;43.81
54628;BME280;40525;55.926;21.066;2023-06-10T06:14:39;102493.13;;;16.29;43.69
54628;BME280;40525;55.926;21.066;2023-06-10T06:17:13;102494.64;;;16.36;43.56
54628;BME280;40525;55.926;21.066;2023-06-10T06:19:59;102492.55;;;16.44;43.54
54628;BME280;40525;55.926;21.066;2023-06-10T06:22:33;102494.48;;;16.52;43.50
54628;BME280;40525;55.926;21.066;2023-06-10T06:25:19;102486.30;;;16.61;43.38
54628;BME280;40525;55.926;21.066;2023-06-10T06:27:53;102485.78;;;16.69;43.28
54628;BME280;40525;55.926;21.066;2023-06-10T06:30:39;102483.27;;;16.78;43.22
54628;BME280;40525;55.926;21.066;2023-06-10T06:33:13;102485.83;;;16.85;43.11
54628;BME280;40525;55.926;21.066;2023-06-10T06:36:00;102485.93;;;16.91;42.89
54628;BME280;40525;55.926;21.066;2023-06-10T06:38:34;102488.27;;;16.99;42.65
54628;BME280;40525;55.926;21.066;2023-06-10T06:41:22;102489.47;;;17.07;42.53
54628;BME280;40525;55.926;21.066;2023-06-10T06:43:56;102483.08;;;17.11;42.13
54628;BME280;40525;55.926;21.066;2023-06-10T06:46:44;102491.97;;;17.23;42.08
54628;BME280;40525;55.926;21.066;2023-06-10T06:49:18;102487.33;;;17.27;41.73
54628;BME280;40525;55.926;21.066;2023-06-10T06:52:07;102487.61;;;17.37;41.56
54628;BME280;40525;55.926;21.066;2023-06-10T06:54:41;102490.61;;;17.49;41.62
54628;BME280;40525;55.926;21.066;2023-06-10T06:57:29;102495.01;;;17.61;41.50
54628;BME280;40525;55.926;21.066;2023-06-10T07:00:04;102500.03;;;17.72;41.31
54628;BME280;40525;55.926;21.066;2023-06-10T07:02:52;102501.49;;;17.83;41.22
54628;BME280;40525;55.926;21.066;2023-06-10T07:05:27;102504.55;;;17.93;41.10
54628;BME280;40525;55.926;21.066;2023-06-10T07:08:14;102505.29;;;18.01;40.94
54628;BME280;40525;55.926;21.066;2023-06-10T07:10:48;102507.06;;;18.01;40.68
54628;BME280;40525;55.926;21.066;2023-06-10T07:13:35;102507.91;;;18.02;40.50
54628;BME280;40525;55.926;21.066;2023-06-10T07:16:10;102505.49;;;18.07;40.25
54628;BME280;40525;55.926;21.066;2023-06-10T07:18:56;102505.65;;;18.15;40.42
54628;BME280;40525;55.926;21.066;2023-06-10T07:21:31;102507.36;;;18.24;40.35
54628;BME280;40525;55.926;21.066;2023-06-10T07:24:18;102504.38;;;18.34;40.20
54628;BME280;40525;55.926;21.066;2023-06-10T07:26:54;102506.00;;;18.41;40.16
54628;BME280;40525;55.926;21.066;2023-06-10T07:29:41;102508.27;;;18.48;40.15
54628;BME280;40525;55.926;21.066;2023-06-10T07:32:15;102504.00;;;18.56;39.83
54628;BME280;40525;55.926;21.066;2023-06-10T07:35:08;102504.65;;;18.64;39.51
54628;BME280;40525;55.926;21.066;2023-06-10T07:37:44;102503.42;;;18.70;38.91
54628;BME280;40525;55.926;21.066;2023-06-10T07:40:31;102505.62;;;18.76;39.12
54628;BME280;40525;55.926;21.066;2023-06-10T07:43:08;102505.77;;;18.84;38.96
54628;BME280;40525;55.926;21.066;2023-06-10T07:45:54;102501.27;;;18.92;38.96
54628;BME280;40525;55.926;21.066;2023-06-10T07:48:28;102503.15;;;19.03;38.70
54628;BME280;40525;55.926;21.066;2023-06-10T07:51:18;102502.21;;;19.14;38.27
54628;BME280;40525;55.926;21.066;2023-06-10T07:53:53;102500.16;;;19.26;38.23
54628;BME280;40525;55.926;21.066;2023-06-10T07:56:40;102504.40;;;19.37;37.97
54628;BME280;40525;55.926;21.066;2023-06-10T07:59:14;102504.38;;;19.47;37.63
54628;BME280;40525;55.926;21.066;2023-06-10T08:02:02;102503.58;;;19.59;36.91
54628;BME280;40525;55.926;21.066;2023-06-10T08:04:36;102507.66;;;19.69;36.64
54628;BME280;40525;55.926;21.066;2023-06-10T08:07:31;102505.97;;;19.80;36.58
54628;BME280;40525;55.926;21.066;2023-06-10T08:10:25;102511.58;;;19.89;36.48
54628;BME280;40525;55.926;21.066;2023-06-10T08:13:00;102510.27;;;19.96;36.15
54628;BME280;40525;55.926;21.066;2023-06-10T08:15:47;102506.80;;;20.00;35.84
54628;BME280;40525;55.926;21.066;2023-06-10T08:18:24;102511.42;;;20.07;35.58
54628;BME280;40525;55.926;21.066;2023-06-10T08:21:10;102516.87;;;20.18;35.55
54628;BME280;40525;55.926;21.066;2023-06-10T08:23:44;102524.73;;;20.27;34.97
54628;BME280;40525;55.926;21.066;2023-06-10T08:26:31;102519.88;;;20.35;34.47
54628;BME280;40525;55.926;21.066;2023-06-10T08:29:08;102525.07;;;20.40;34.60
54628;BME280;40525;55.926;21.066;2023-06-10T08:31:55;102525.01;;;20.44;34.39
54628;BME280;40525;55.926;21.066;2023-06-10T08:34:29;102519.99;;;20.51;34.44
54628;BME280;40525;55.926;21.066;2023-06-10T08:37:16;102517.58;;;20.59;34.09
54628;BME280;40525;55.926;21.066;2023-06-10T08:39:50;102514.75;;;20.67;34.22
54628;BME280;40525;55.926;21.066;2023-06-10T08:42:39;102516.23;;;20.76;34.04
54628;BME280;40525;55.926;21.066;2023-06-10T08:45:17;102511.96;;;20.84;33.95
54628;BME280;40525;55.926;21.066;2023-06-10T08:48:05;102515.09;;;20.94;34.15
54628;BME280;40525;55.926;21.066;2023-06-10T08:50:42;102512.48;;;21.05;34.23
54628;BME280;40525;55.926;21.066;2023-06-10T08:53:30;102513.29;;;21.15;34.29
54628;BME280;40525;55.926;21.066;2023-06-10T08:56:05;102516.02;;;21.23;34.10
54628;BME280;40525;55.926;21.066;2023-06-10T08:58:52;102514.35;;;21.33;34.10
54628;BME280;40525;55.926;21.066;2023-06-10T09:01:27;102518.73;;;21.46;34.18
54628;BME280;40525;55.926;21.066;2023-06-10T09:04:15;102516.65;;;21.59;34.03
54628;BME280;40525;55.926;21.066;2023-06-10T09:07:10;102517.41;;;21.72;34.05
54628;BME280;40525;55.926;21.066;2023-06-10T09:10:05;102517.88;;;21.85;33.74
54628;BME280;40525;55.926;21.066;2023-06-10T09:12:40;102514.39;;;21.92;33.08
54628;BME280;40525;55.926;21.066;2023-06-10T09:15:34;102509.45;;;21.96;32.73
54628;BME280;40525;55.926;21.066;2023-06-10T09:18:28;102509.79;;;22.02;32.94
54628;BME280;40525;55.926;21.066;2023-06-10T09:21:24;102513.33;;;22.08;32.90
54628;BME280;40525;55.926;21.066;2023-06-10T09:23:58;102514.23;;;22.19;32.84
54628;BME280;40525;55.926;21.066;2023-06-10T09:26:45;102508.97;;;22.31;32.71
54628;BME280;40525;55.926;21.066;2023-06-10T09:29:51;102512.73;;;22.42;32.67
54628;BME280;40525;55.926;21.066;2023-06-10T09:32:46;102512.33;;;22.55;32.60
54628;BME280;40525;55.926;21.066;2023-06-10T09:35:20;102505.20;;;22.71;32.46
54628;BME280;40525;55.926;21.066;2023-06-10T09:38:08;102505.16;;;22.82;32.01
54628;BME280;40525;55.926;21.066;2023-06-10T09:40:52;102505.98;;;22.90;31.81
54628;BME280;40525;55.926;21.066;2023-06-10T09:43:45;102504.15;;;22.96;31.86
54628;BME280;40525;55.926;21.066;2023-06-10T09:46:19;102502.94;;;23.04;31.79
54628;BME280;40525;55.926;21.066;2023-06-10T09:49:06;102507.20;;;23.12;31.90
54628;BME280;40525;55.926;21.066;2023-06-10T09:51:53;102510.50;;;23.21;31.89
54628;BME280;40525;55.926;21.066;2023-06-10T09:54:44;102499.51;;;23.32;31.55
54628;BME280;40525;55.926;21.066;2023-06-10T09:57:21;102513.66;;;23.37;31.66
54628;BME280;40525;55.926;21.066;2023-06-10T10:00:10;102511.89;;;23.45;31.35
54628;BME280;40525;55.926;21.066;2023-06-10T10:02:49;102510.26;;;23.50;30.95
54628;BME280;40525;55.926;21.066;2023-06-10T10:05:36;102512.59;;;23.60;31.27
54628;BME280;40525;55.926;21.066;2023-06-10T10:08:10;102510.23;;;23.73;31.17
54628;BME280;40525;55.926;21.066;2023-06-10T10:10:58;102511.79;;;23.86;30.90
54628;BME280;40525;55.926;21.066;2023-06-10T10:13:35;102515.14;;;23.99;30.52
54628;BME280;40525;55.926;21.066;2023-06-10T10:16:30;102508.59;;;24.13;30.29
54628;BME280;40525;55.926;21.066;2023-06-10T10:19:22;102504.48;;;24.24;30.22
54628;BME280;40525;55.926;21.066;2023-06-10T10:22:15;102509.01;;;24.33;29.99
54628;BME280;40525;55.926;21.066;2023-06-10T10:25:13;102504.61;;;24.44;30.04
54628;BME280;40525;55.926;21.066;2023-06-10T10:28:08;102491.00;;;24.55;29.41
54628;BME280;40525;55.926;21.066;2023-06-10T10:30:51;102497.13;;;24.65;29.60
54628;BME280;40525;55.926;21.066;2023-06-10T10:33:41;102495.75;;;24.71;29.30
54628;BME280;40525;55.926;21.066;2023-06-10T10:36:22;102500.75;;;24.78;29.30
54628;BME280;40525;55.926;21.066;2023-06-10T10:39:03;102499.56;;;24.89;29.36
54628;BME280;40525;55.926;21.066;2023-06-10T10:41:44;102490.02;;;24.98;29.02
54628;BME280;40525;55.926;21.066;2023-06-10T10:44:25;102493.83;;;25.01;28.74
54628;BME280;40525;55.926;21.066;2023-06-10T10:47:10;102493.73;;;25.04;28.64
54628;BME280;40525;55.926;21.066;2023-06-10T10:49:51;102491.54;;;25.13;28.55
54628;BME280;40525;55.926;21.066;2023-06-10T10:52:51;102489.09;;;25.28;28.17
54628;BME280;40525;55.926;21.066;2023-06-10T10:55:32;102497.13;;;25.34;27.75
54628;BME280;40525;55.926;21.066;2023-06-10T10:58:13;102503.42;;;25.47;27.88
54628;BME280;40525;55.926;21.066;2023-06-10T11:00:53;102493.01;;;25.60;27.69
54628;BME280;40525;55.926;21.066;2023-06-10T11:03:45;102485.70;;;25.75;27.87
54628;BME280;40525;55.926;21.066;2023-06-10T11:06:39;102489.15;;;25.90;27.65
54628;BME280;40525;55.926;21.066;2023-06-10T11:09:33;102488.39;;;26.15;27.68
54628;BME280;40525;55.926;21.066;2023-06-10T11:15:22;102493.59;;;26.49;26.40
54628;BME280;40525;55.926;21.066;2023-06-10T11:18:11;102495.92;;;26.66;26.65
54628;BME280;40525;55.926;21.066;2023-06-10T11:20:53;102493.26;;;26.85;26.46
54628;BME280;40525;55.926;21.066;2023-06-10T11:23:41;102485.84;;;26.99;26.29
54628;BME280;40525;55.926;21.066;2023-06-10T11:29:09;102490.35;;;27.41;25.92
54628;BME280;40525;55.926;21.066;2023-06-10T11:31:49;102493.88;;;27.64;25.73
54628;BME280;40525;55.926;21.066;2023-06-10T11:34:36;102487.63;;;27.85;25.07
54628;BME280;40525;55.926;21.066;2023-06-10T11:37:09;102485.94;;;27.98;24.77
54628;BME280;40525;55.926;21.066;2023-06-10T11:39:56;102478.73;;;28.11;24.77
54628;BME280;40525;55.926;21.066;2023-06-10T11:42:29;102487.41;;;28.25;24.85
54628;BME280;40525;55.926;21.066;2023-06-10T11:45:17;102484.59;;;28.44;24.51
54628;BME280;40525;55.926;21.066;2023-06-10T11:47:57;102485.20;;;28.60;24.20
54628;BME280;40525;55.926;21.066;2023-06-10T11:50:45;102483.67;;;28.80;23.99
54628;BME280;40525;55.926;21.066;2023-06-10T11:53:18;102481.52;;;28.97;23.84
54628;BME280;40525;55.926;21.066;2023-06-10T11:56:05;102474.50;;;29.15;23.51
54628;BME280;40525;55.926;21.066;2023-06-10T11:58:43;102479.96;;;29.30;23.21
54628;BME280;40525;55.926;21.066;2023-06-10T12:01:33;102473.85;;;29.46;22.92
54628;BME280;40525;55.926;21.066;2023-06-10T12:04:12;102474.17;;;29.69;23.07
54628;BME280;40525;55.926;21.066;2023-06-10T12:06:59;102477.42;;;29.91;22.82
54628;BME280;40525;55.926;21.066;2023-06-10T12:09:32;102473.27;;;30.02;22.46
54628;BME280;40525;55.926;21.066;2023-06-10T12:12:19;102469.57;;;30.09;22.39
54628;BME280;40525;55.926;21.066;2023-06-10T12:14:59;102475.90;;;30.26;22.35
54628;BME280;40525;55.926;21.066;2023-06-10T12:17:48;102473.58;;;30.47;21.96
54628;BME280;40525;55.926;21.066;2023-06-10T12:20:30;102468.61;;;30.77;21.79
54628;BME280;40525;55.926;21.066;2023-06-10T12:23:20;102468.38;;;31.05;21.59
54628;BME280;40525;55.926;21.066;2023-06-10T12:25:55;102468.02;;;31.28;21.50
54628;BME280;40525;55.926;21.066;2023-06-10T12:28:50;102464.67;;;31.44;21.37
54628;BME280;40525;55.926;21.066;2023-06-10T12:31:24;102456.16;;;31.59;20.88
54628;BME280;40525;55.926;21.066;2023-06-10T12:34:11;102459.27;;;31.82;20.53
54628;BME280;40525;55.926;21.066;2023-06-10T12:36:49;102465.18;;;32.10;20.31
54628;BME280;40525;55.926;21.066;2023-06-10T12:39:35;102464.23;;;32.20;20.15
54628;BME280;40525;55.926;21.066;2023-06-10T12:42:09;102457.77;;;32.14;19.59
54628;BME280;40525;55.926;21.066;2023-06-10T12:44:57;102457.91;;;32.15;19.56
54628;BME280;40525;55.926;21.066;2023-06-10T12:47:36;102458.76;;;32.28;19.80
54628;BME280;40525;55.926;21.066;2023-06-10T12:50:22;102455.26;;;32.45;19.50
54628;BME280;40525;55.926;21.066;2023-06-10T12:52:56;102450.03;;;32.64;19.78
54628;BME280;40525;55.926;21.066;2023-06-10T12:55:43;102452.31;;;32.81;19.35
54628;BME280;40525;55.926;21.066;2023-06-10T12:58:22;102457.48;;;32.88;19.13
54628;BME280;40525;55.926;21.066;2023-06-10T13:01:10;102451.71;;;33.02;18.94
54628;BME280;40525;55.926;21.066;2023-06-10T13:03:44;102443.50;;;33.31;18.86
54628;BME280;40525;55.926;21.066;2023-06-10T13:06:30;102448.50;;;33.54;18.31
54628;BME280;40525;55.926;21.066;2023-06-10T13:09:05;102441.10;;;33.45;17.63
54628;BME280;40525;55.926;21.066;2023-06-10T13:11:52;102442.71;;;33.49;18.34
54628;BME280;40525;55.926;21.066;2023-06-10T13:14:26;102442.05;;;33.61;18.17
54628;BME280;40525;55.926;21.066;2023-06-10T13:17:12;102432.00;;;33.72;17.70
54628;BME280;40525;55.926;21.066;2023-06-10T13:19:46;102436.44;;;33.87;17.98
54628;BME280;40525;55.926;21.066;2023-06-10T13:22:34;102434.46;;;33.97;17.69
54628;BME280;40525;55.926;21.066;2023-06-10T13:25:09;102428.38;;;34.02;17.30
54628;BME280;40525;55.926;21.066;2023-06-10T13:27:56;102430.08;;;34.11;17.33
54628;BME280;40525;55.926;21.066;2023-06-10T13:30:30;102435.54;;;34.31;17.28
54628;BME280;40525;55.926;21.066;2023-06-10T13:33:16;102432.02;;;34.43;17.00
54628;BME280;40525;55.926;21.066;2023-06-10T13:35:50;102434.85;;;34.52;16.77
54628;BME280;40525;55.926;21.066;2023-06-10T13:38:38;102433.98;;;34.50;16.56
54628;BME280;40525;55.926;21.066;2023-06-10T13:41:11;102430.49;;;34.62;16.56
54628;BME280;40525;55.926;21.066;2023-06-10T13:43:57;102434.00;;;34.78;16.31
54628;BME280;40525;55.926;21.066;2023-06-10T13:46:31;102430.08;;;34.79;16.32
54628;BME280;40525;55.926;21.066;2023-06-10T13:49:18;102430.83;;;34.77;16.37
54628;BME280;40525;55.926;21.066;2023-06-10T13:51:53;102426.80;;;34.76;16.30
54628;BME280;40525;55.926;21.066;2023-06-10T13:54:39;102423.56;;;34.83;16.42
54628;BME280;40525;55.926;21.066;2023-06-10T13:57:13;102430.23;;;35.12;16.41
54628;BME280;40525;55.926;21.066;2023-06-10T14:00:01;102436.09;;;35.21;16.26
54628;BME280;40525;55.926;21.066;2023-06-10T14:02:34;102436.31;;;35.23;16.03
54628;BME280;40525;55.926;21.066;2023-06-10T14:05:21;102438.29;;;35.26;16.25
54628;BME280;40525;55.926;21.066;2023-06-10T14:07:57;102431.88;;;35.38;16.15
54628;BME280;40525;55.926;21.066;2023-06-10T14:10:44;102426.38;;;35.42;15.98